Time;durP1;ratioP1;P1;durP2;ratioP2;P2;SDS_P1;SDS_P2;PMS_P1;PMS_P2;Temp;Humidity;BMP_temperature;BMP_pressure;BME280_temperature;BME280_humidity;BME280_pressure;Samples;Min_cycle;Max_cycle;Signal;HPM_P1;HPM_P2
2023/08/24 00:00:09;;;;;;;21.33;3.80;;;;;;;;;;4980262;28;20054;-58
2023/08/24 00:02:57;;;;;;;19.05;5.53;;;;;;;;;;4978310;28;20523;-57
2023/08/24 00:05:51;;;;;;;23.92;4.38;;;;;;;;;;4981329;28;20054;-57
2023/08/24 00:08:38;;;;;;;17.83;4.13;;;;;;;;;;4981651;28;20050;-58
2023/08/24 00:11:31;;;;;;;22.10;3.97;;;;;;;;;;4978313;28;20078;-58
2023/08/24 00:14:19;;;;;;;19.10;4.38;;;;;;;;;;4979578;28;20519;-55
2023/08/24 00:17:19;;;;;;;19.00;3.78;;;;;;;;;;4981820;28;20055;-53
2023/08/24 00:20:10;;;;;;;18.45;3.85;;;;;;;;;;4981677;28;20054;-54
2023/08/24 00:23:00;;;;;;;25.40;3.85;;;;;;;;;;4982602;28;20562;-61
2023/08/24 00:25:48;;;;;;;21.52;4.35;;;;;;;;;;4983885;28;20058;-60
2023/08/24 00:28:41;;;;;;;18.83;3.97;;;;;;;;;;4976161;28;20058;-60
2023/08/24 00:31:29;;;;;;;16.17;3.88;;;;;;;;;;4985340;28;20133;-60
2023/08/24 00:34:22;;;;;;;14.85;3.80;;;;;;;;;;4982398;28;20054;-60
2023/08/24 00:37:10;;;;;;;20.35;3.70;;;;;;;;;;4992528;28;20051;-60
2023/08/24 00:40:07;;;;;;;20.23;3.55;;;;;;;;;;4987345;28;20512;-60
2023/08/24 00:42:52;;;;;;;16.27;3.55;;;;;;;;;;4985303;28;20141;-60
2023/08/24 00:45:45;;;;;;;18.80;3.75;;;;;;;;;;4979023;28;20051;-61
2023/08/24 00:48:39;;;;;;;22.65;3.72;;;;;;;;;;4985316;28;20203;-61
2023/08/24 00:51:34;;;;;;;18.65;4.18;;;;;;;;;;4985372;28;20061;-54
2023/08/24 00:54:21;;;;;;;24.85;4.00;;;;;;;;;;4984346;28;20106;-57
2023/08/24 00:57:15;;;;;;;19.35;3.60;;;;;;;;;;4985783;28;20136;-56
2023/08/24 01:00:11;;;;;;;24.20;3.70;;;;;;;;;;4982854;28;20137;-57
2023/08/24 01:03:04;;;;;;;22.20;3.63;;;;;;;;;;4984176;28;20042;-56
2023/08/24 01:05:52;;;;;;;20.45;3.90;;;;;;;;;;4983241;28;20487;-57
2023/08/24 01:08:46;;;;;;;18.02;3.05;;;;;;;;;;4980343;28;20484;-57
2023/08/24 01:11:51;;;;;;;18.55;4.22;;;;;;;;;;4981934;28;20118;-53
2023/08/24 01:14:52;;;;;;;20.58;3.88;;;;;;;;;;4978630;28;20054;-49
2023/08/24 01:17:48;;;;;;;22.85;4.00;;;;;;;;;;4986228;28;20086;-53
2023/08/24 01:20:49;;;;;;;19.40;3.58;;;;;;;;;;4984312;28;21083;-60
2023/08/24 01:23:42;;;;;;;23.63;4.43;;;;;;;;;;4980460;28;20054;-56
2023/08/24 01:26:36;;;;;;;20.50;3.80;;;;;;;;;;4980009;28;20058;-57
2023/08/24 01:29:23;;;;;;;34.03;4.65;;;;;;;;;;4983811;28;20073;-56
2023/08/24 01:32:17;;;;;;;25.95;4.40;;;;;;;;;;4981911;28;20129;-57
2023/08/24 01:35:06;;;;;;;21.10;4.18;;;;;;;;;;4979891;28;20058;-55
2023/08/24 01:38:02;;;;;;;19.35;4.05;;;;;;;;;;4982561;28;20863;-56
2023/08/24 01:40:53;;;;;;;26.27;4.60;;;;;;;;;;4981445;28;20046;-57
2023/08/24 01:43:48;;;;;;;21.10;4.05;;;;;;;;;;4982036;28;20089;-57
2023/08/24 01:46:36;;;;;;;27.58;3.97;;;;;;;;;;4984900;28;20425;-56
2023/08/24 01:49:31;;;;;;;20.42;4.07;;;;;;;;;;4988111;28;20062;-51
2023/08/24 01:52:18;;;;;;;24.25;4.28;;;;;;;;;;4989776;28;20709;-49
2023/08/24 01:55:12;;;;;;;29.95;4.68;;;;;;;;;;4986150;28;20317;-49
2023/08/24 01:58:00;;;;;;;22.65;4.40;;;;;;;;;;4988048;28;20133;-53
2023/08/24 02:00:54;;;;;;;21.70;3.60;;;;;;;;;;4977052;28;20443;-51
2023/08/24 02:03:42;;;;;;;16.42;3.28;;;;;;;;;;4978795;28;20058;-53
2023/08/24 02:06:35;;;;;;;16.65;3.95;;;;;;;;;;4981698;28;20117;-57
2023/08/24 02:09:23;;;;;;;17.08;3.67;;;;;;;;;;4979839;28;20054;-57
2023/08/24 02:12:16;;;;;;;20.65;4.20;;;;;;;;;;4980402;28;20050;-58
2023/08/24 02:15:04;;;;;;;23.10;4.75;;;;;;;;;;4978995;28;20054;-58
2023/08/24 02:18:10;;;;;;;26.73;4.43;;;;;;;;;;4705958;28;8188333;-65
2023/08/24 02:21:08;;;;;;;24.42;4.15;;;;;;;;;;4979381;28;20073;-59
2023/08/24 02:24:01;;;;;;;25.52;5.55;;;;;;;;;;4979539;28;20504;-59
2023/08/24 02:26:49;;;;;;;27.38;4.47;;;;;;;;;;4985878;28;20108;-60
2023/08/24 02:29:42;;;;;;;22.25;4.80;;;;;;;;;;4981528;28;20341;-60
2023/08/24 02:32:30;;;;;;;29.67;5.40;;;;;;;;;;4985802;28;20094;-59
2023/08/24 02:35:23;;;;;;;25.58;4.15;;;;;;;;;;4977631;28;20068;-57
2023/08/24 02:38:11;;;;;;;29.90;5.45;;;;;;;;;;4981271;28;20104;-57
2023/08/24 02:41:05;;;;;;;28.02;5.03;;;;;;;;;;4979518;28;20130;-56
2023/08/24 02:43:52;;;;;;;25.13;4.32;;;;;;;;;;4978065;28;20147;-57
2023/08/24 02:46:48;;;;;;;31.48;5.38;;;;;;;;;;4984240;28;20082;-57
2023/08/24 02:49:36;;;;;;;22.80;4.88;;;;;;;;;;4985780;28;20508;-59
2023/08/24 02:52:29;;;;;;;29.33;5.22;;;;;;;;;;4981802;28;20141;-60
2023/08/24 02:55:16;;;;;;;22.48;4.40;;;;;;;;;;4982163;28;20458;-60
2023/08/24 02:58:10;;;;;;;28.15;4.70;;;;;;;;;;4981673;28;20062;-60
2023/08/24 03:00:57;;;;;;;25.75;4.40;;;;;;;;;;4980354;28;20144;-60
2023/08/24 03:03:52;;;;;;;29.23;4.75;;;;;;;;;;4980790;28;20145;-57
2023/08/24 03:06:39;;;;;;;28.80;4.82;;;;;;;;;;4981799;28;20054;-57
2023/08/24 03:09:32;;;;;;;33.53;5.63;;;;;;;;;;4973676;28;20070;-56
2023/08/24 03:12:20;;;;;;;23.58;4.57;;;;;;;;;;4982184;28;20585;-56
2023/08/24 03:15:13;;;;;;;26.45;4.95;;;;;;;;;;4975904;28;20148;-65
2023/08/24 03:18:12;;;;;;;26.67;4.60;;;;;;;;;;4981907;28;20050;-54
2023/08/24 03:21:12;;;;;;;10.98;2.60;;;;;;;;;;4981450;28;20055;-51
2023/08/24 03:23:59;;;;;;;15.48;2.90;;;;;;;;;;4976615;28;20114;-49
2023/08/24 03:26:53;;;;;;;14.32;2.60;;;;;;;;;;4978597;28;20105;-53
2023/08/24 03:29:41;;;;;;;9.20;3.08;;;;;;;;;;4978818;28;20613;-51
2023/08/24 03:32:34;;;;;;;17.65;4.60;;;;;;;;;;4979866;28;20137;-51
2023/08/24 03:35:22;;;;;;;12.52;2.45;;;;;;;;;;4977114;28;20061;-50
2023/08/24 03:38:15;;;;;;;8.43;2.17;;;;;;;;;;4979792;28;20610;-53
2023/08/24 03:41:03;;;;;;;20.30;2.50;;;;;;;;;;4979618;28;20086;-52
2023/08/24 03:43:57;;;;;;;14.00;3.10;;;;;;;;;;4979705;28;20054;-53
2023/08/24 03:46:45;;;;;;;11.98;2.50;;;;;;;;;;4986304;28;20059;-60
2023/08/24 03:49:38;;;;;;;16.58;3.90;;;;;;;;;;4984214;28;20061;-60
2023/08/24 03:52:26;;;;;;;23.58;2.97;;;;;;;;;;4985418;28;20050;-60
2023/08/24 03:55:19;;;;;;;23.08;3.10;;;;;;;;;;4982151;28;20081;-60
2023/08/24 03:58:07;;;;;;;10.07;2.42;;;;;;;;;;4980706;28;20050;-60
2023/08/24 04:01:04;;;;;;;10.93;2.67;;;;;;;;;;4980164;28;20117;-60
2023/08/24 04:03:51;;;;;;;11.15;2.40;;;;;;;;;;4976197;28;20129;-60
2023/08/24 04:06:45;;;;;;;14.85;2.72;;;;;;;;;;4975072;28;20058;-60
2023/08/24 04:09:33;;;;;;;13.30;3.33;;;;;;;;;;4976548;28;20078;-60
2023/08/24 04:12:26;;;;;;;21.02;2.95;;;;;;;;;;4981998;28;20062;-56
2023/08/24 04:15:20;;;;;;;21.40;4.10;;;;;;;;;;4979959;28;20074;-56
2023/08/24 04:18:14;;;;;;;11.60;2.67;;;;;;;;;;4980360;28;20073;-57
2023/08/24 04:21:07;;;;;;;17.48;3.22;;;;;;;;;;4976969;28;20050;-56
2023/08/24 04:23:54;;;;;;;13.35;3.60;;;;;;;;;;4979048;28;20504;-57
2023/08/24 04:26:48;;;;;;;14.68;3.00;;;;;;;;;;4974464;28;20058;-57
2023/08/24 04:29:35;;;;;;;18.27;3.08;;;;;;;;;;4978159;28;20542;-59
2023/08/24 04:32:30;;;;;;;25.92;4.10;;;;;;;;;;4977352;28;20149;-61
2023/08/24 04:35:17;;;;;;;18.38;3.22;;;;;;;;;;4982752;28;21014;-60
2023/08/24 04:38:10;;;;;;;16.83;3.75;;;;;;;;;;4976440;28;20148;-59
2023/08/24 04:40:58;;;;;;;11.98;2.63;;;;;;;;;;4981550;28;20079;-53
2023/08/24 04:43:51;;;;;;;7.45;2.45;;;;;;;;;;4980021;28;20105;-53
2023/08/24 04:46:39;;;;;;;33.17;5.50;;;;;;;;;;4980333;28;20062;-50
2023/08/24 04:49:33;;;;;;;41.25;4.28;;;;;;;;;;4974353;28;20523;-49
2023/08/24 04:52:21;;;;;;;18.98;3.10;;;;;;;;;;4981020;28;20050;-52
2023/08/24 04:55:14;;;;;;;35.72;5.47;;;;;;;;;;4981184;28;20046;-53
2023/08/24 04:58:08;;;;;;;28.75;4.38;;;;;;;;;;4972633;28;20105;-57
2023/08/24 05:01:02;;;;;;;27.27;4.32;;;;;;;;;;4981189;28;20260;-56
2023/08/24 05:03:50;;;;;;;26.13;4.65;;;;;;;;;;4981271;28;20526;-57
2023/08/24 05:06:43;;;;;;;26.35;4.57;;;;;;;;;;4982185;28;20516;-57
2023/08/24 05:09:37;;;;;;;40.15;5.03;;;;;;;;;;4979921;28;20054;-65
2023/08/24 05:12:33;;;;;;;18.45;3.70;;;;;;;;;;4983008;28;20124;-57
2023/08/24 05:15:18;;;;;;;30.05;4.50;;;;;;;;;;4976968;28;20099;-57
2023/08/24 05:18:11;;;;;;;28.20;4.80;;;;;;;;;;4984605;28;20053;-55
2023/08/24 05:21:06;;;;;;;25.75;4.68;;;;;;;;;;4986884;28;20046;-57
2023/08/24 05:23:53;;;;;;;29.40;4.57;;;;;;;;;;4984496;28;20566;-57
2023/08/24 05:26:46;;;;;;;26.20;4.88;;;;;;;;;;4983822;28;20062;-59
2023/08/24 05:29:41;;;;;;;19.65;4.07;;;;;;;;;;4981095;28;20444;-60
2023/08/24 05:32:28;;;;;;;23.65;4.10;;;;;;;;;;4981948;28;20053;-60
2023/08/24 05:35:22;;;;;;;22.85;3.63;;;;;;;;;;4981958;28;20169;-53
2023/08/24 05:38:15;;;;;;;21.55;3.80;;;;;;;;;;4981382;28;20055;-61
2023/08/24 05:41:05;;;;;;;17.48;3.90;;;;;;;;;;4986334;28;20649;-67
2023/08/24 05:44:00;;;;;;;20.83;3.65;;;;;;;;;;4985626;28;20511;-66
2023/08/24 05:46:47;;;;;;;22.38;3.80;;;;;;;;;;4984034;28;20058;-67
2023/08/24 05:49:41;;;;;;;20.98;3.92;;;;;;;;;;4988653;28;20059;-66
2023/08/24 05:52:28;;;;;;;23.65;3.90;;;;;;;;;;4982263;28;20047;-66
2023/08/24 05:55:21;;;;;;;28.50;4.22;;;;;;;;;;4984652;28;20144;-51
2023/08/24 05:58:08;;;;;;;22.15;3.35;;;;;;;;;;4981569;28;20145;-52
2023/08/24 06:01:02;;;;;;;23.40;4.10;;;;;;;;;;4979857;28;20050;-54
2023/08/24 06:03:56;;;;;;;20.15;4.50;;;;;;;;;;4982226;28;20050;-54
2023/08/24 06:06:51;;;;;;;23.63;3.55;;;;;;;;;;4982154;28;20496;-57
2023/08/24 06:09:38;;;;;;;24.77;3.90;;;;;;;;;;4983119;28;20065;-58
2023/08/24 06:12:31;;;;;;;15.70;3.50;;;;;;;;;;4982212;28;20055;-57
2023/08/24 06:15:19;;;;;;;17.50;3.50;;;;;;;;;;4981913;28;20491;-58
2023/08/24 06:18:19;;;;;;;21.48;3.97;;;;;;;;;;4983624;28;20125;-58
2023/08/24 06:21:13;;;;;;;16.70;3.63;;;;;;;;;;4982776;28;20046;-58
2023/08/24 06:24:07;;;;;;;20.00;3.28;;;;;;;;;;4986104;28;20055;-58
2023/08/24 06:27:00;;;;;;;18.88;3.60;;;;;;;;;;4982625;28;20157;-58
2023/08/24 06:29:54;;;;;;;20.77;3.10;;;;;;;;;;4980932;28;20077;-59
2023/08/24 06:32:42;;;;;;;20.98;3.33;;;;;;;;;;4979280;28;20058;-61
2023/08/24 06:35:36;;;;;;;18.67;3.50;;;;;;;;;;4982494;28;20595;-62
2023/08/24 06:38:23;;;;;;;14.10;3.28;;;;;;;;;;4986574;28;20113;-61
2023/08/24 06:41:16;;;;;;;16.77;2.90;;;;;;;;;;4987198;28;20439;-62
2023/08/24 06:44:04;;;;;;;12.02;2.78;;;;;;;;;;4988370;28;20081;-61
2023/08/24 06:46:57;;;;;;;22.42;3.42;;;;;;;;;;4985186;28;20515;-61
2023/08/24 06:49:45;;;;;;;20.20;3.30;;;;;;;;;;4984976;28;20116;-61
2023/08/24 06:52:38;;;;;;;14.45;2.53;;;;;;;;;;4981056;28;20117;-61
2023/08/24 06:55:27;;;;;;;14.52;2.67;;;;;;;;;;4981960;28;20058;-61
2023/08/24 06:58:27;;;;;;;15.35;2.50;;;;;;;;;;4986283;28;20054;-61
2023/08/24 07:01:21;;;;;;;20.55;3.08;;;;;;;;;;4980115;28;20057;-57
2023/08/24 07:04:15;;;;;;;13.63;2.90;;;;;;;;;;4983192;28;20058;-61
2023/08/24 07:07:10;;;;;;;17.33;2.70;;;;;;;;;;4981504;28;20058;-61
2023/08/24 07:10:04;;;;;;;14.43;2.90;;;;;;;;;;4983029;28;20072;-61
2023/08/24 07:12:51;;;;;;;8.32;2.58;;;;;;;;;;4981842;28;20062;-61
2023/08/24 07:15:45;;;;;;;9.93;2.40;;;;;;;;;;4982498;28;20124;-61
2023/08/24 07:18:38;;;;;;;16.38;3.10;;;;;;;;;;4981050;28;20065;-62
2023/08/24 07:21:31;;;;;;;15.88;2.83;;;;;;;;;;4980439;28;20085;-58
2023/08/24 07:24:20;;;;;;;12.32;2.20;;;;;;;;;;4981991;28;20055;-58
2023/08/24 07:27:13;;;;;;;14.25;2.58;;;;;;;;;;4979015;28;20050;-58
2023/08/24 07:30:00;;;;;;;12.90;2.72;;;;;;;;;;4980348;28;21277;-62
2023/08/24 07:33:01;;;;;;;16.15;2.80;;;;;;;;;;4982598;28;20346;-59
2023/08/24 07:35:48;;;;;;;13.73;2.78;;;;;;;;;;4981651;28;20058;-58
2023/08/24 07:38:42;;;;;;;17.17;2.67;;;;;;;;;;4983934;28;21562;-59
2023/08/24 07:41:35;;;;;;;19.33;2.97;;;;;;;;;;4982571;28;20113;-59
2023/08/24 07:44:29;;;;;;;14.20;2.35;;;;;;;;;;4983774;28;20065;-59
2023/08/24 07:47:16;;;;;;;11.05;2.33;;;;;;;;;;4985921;28;20061;-59
2023/08/24 07:50:10;;;;;;;17.80;2.70;;;;;;;;;;4983590;28;20058;-61
2023/08/24 07:53:04;;;;;;;12.35;2.55;;;;;;;;;;4982600;28;20061;-60
2023/08/24 07:55:51;;;;;;;17.45;3.30;;;;;;;;;;4985070;28;20283;-60
2023/08/24 07:58:44;;;;;;;15.10;2.63;;;;;;;;;;4980606;28;20062;-60
2023/08/24 08:01:32;;;;;;;8.27;2.30;;;;;;;;;;4981660;28;20074;-60
2023/08/24 08:04:26;;;;;;;15.98;2.88;;;;;;;;;;4977095;28;20117;-60
2023/08/24 08:07:13;;;;;;;17.50;2.97;;;;;;;;;;4981706;28;20050;-60
2023/08/24 08:10:07;;;;;;;10.32;2.53;;;;;;;;;;4979760;28;20512;-61
2023/08/24 08:12:54;;;;;;;15.75;2.20;;;;;;;;;;4968035;28;20121;-61
2023/08/24 08:15:48;;;;;;;12.90;2.67;;;;;;;;;;4979239;28;20053;-61
2023/08/24 08:18:41;;;;;;;8.43;2.30;;;;;;;;;;4982626;28;20547;-52
2023/08/24 08:21:36;;;;;;;16.13;2.30;;;;;;;;;;4979031;28;21208;-55
2023/08/24 08:24:23;;;;;;;12.05;2.15;;;;;;;;;;4979680;28;20436;-53
2023/08/24 08:27:16;;;;;;;12.38;2.38;;;;;;;;;;4979705;28;20524;-66
2023/08/24 08:30:11;;;;;;;9.75;2.55;;;;;;;;;;4981553;28;20156;-58
2023/08/24 08:33:04;;;;;;;8.82;2.17;;;;;;;;;;4977379;28;20058;-58
2023/08/24 08:35:52;;;;;;;7.80;2.42;;;;;;;;;;4979188;28;20132;-59
2023/08/24 08:38:46;;;;;;;12.90;2.83;;;;;;;;;;4981796;28;20054;-59
2023/08/24 08:41:35;;;;;;;10.02;2.40;;;;;;;;;;4982245;28;20110;-58
2023/08/24 08:44:34;;;;;;;9.68;2.35;;;;;;;;;;4982703;28;20050;-61
2023/08/24 08:47:22;;;;;;;9.55;2.53;;;;;;;;;;4983575;28;20383;-62
2023/08/24 08:50:15;;;;;;;15.43;2.20;;;;;;;;;;4983927;28;20062;-62
2023/08/24 08:53:08;;;;;;;12.07;2.47;;;;;;;;;;4984990;28;20642;-62
2023/08/24 08:55:57;;;;;;;17.70;2.55;;;;;;;;;;4980078;28;20054;-59
2023/08/24 08:58:50;;;;;;;11.35;2.30;;;;;;;;;;4984743;28;20066;-51
2023/08/24 09:01:38;;;;;;;15.60;3.30;;;;;;;;;;4981289;28;20425;-53
2023/08/24 09:04:33;;;;;;;11.05;2.60;;;;;;;;;;4986582;28;21198;-54
2023/08/24 09:07:27;;;;;;;8.80;2.25;;;;;;;;;;4983686;28;20053;-51
2023/08/24 09:10:14;;;;;;;9.52;2.30;;;;;;;;;;4982053;28;20053;-54
2023/08/24 09:13:08;;;;;;;10.82;2.50;;;;;;;;;;4985620;28;20046;-66
2023/08/24 09:16:04;;;;;;;14.40;2.63;;;;;;;;;;4983399;28;20054;-66
2023/08/24 09:19:12;;;;;;;10.77;2.47;;;;;;;;;;4983149;28;20117;-66
2023/08/24 09:22:08;;;;;;;10.05;2.40;;;;;;;;;;4984002;28;20527;-66
2023/08/24 09:25:04;;;;;;;9.63;2.75;;;;;;;;;;4983047;28;20534;-55
2023/08/24 09:27:59;;;;;;;9.68;2.15;;;;;;;;;;4978933;28;20058;-60
2023/08/24 09:30:57;;;;;;;15.80;2.63;;;;;;;;;;4980991;28;20050;-60
2023/08/24 09:33:47;;;;;;;8.25;2.15;;;;;;;;;;4982054;28;20046;-59
2023/08/24 09:36:41;;;;;;;13.65;2.25;;;;;;;;;;4982641;28;20058;-60
2023/08/24 09:39:28;;;;;;;14.60;2.15;;;;;;;;;;4982074;28;20081;-59
2023/08/24 09:42:28;;;;;;;13.13;2.42;;;;;;;;;;4981189;28;20085;-59
2023/08/24 09:45:13;;;;;;;10.20;2.10;;;;;;;;;;4983038;28;20148;-59
2023/08/24 09:48:06;;;;;;;11.15;2.10;;;;;;;;;;4978986;28;20443;-59
2023/08/24 09:50:57;;;;;;;39.55;3.10;;;;;;;;;;4983166;28;20527;-60
2023/08/24 09:53:50;;;;;;;8.40;1.95;;;;;;;;;;4983893;28;21862;-59
2023/08/24 09:56:38;;;;;;;9.20;2.22;;;;;;;;;;4984655;28;20439;-66
2023/08/24 09:59:32;;;;;;;9.13;2.05;;;;;;;;;;4987693;28;20058;-66
2023/08/24 10:02:24;;;;;;;8.98;2.00;;;;;;;;;;4986220;28;20058;-66
2023/08/24 10:05:23;;;;;;;8.68;2.40;;;;;;;;;;4986556;28;20042;-65
2023/08/24 10:08:27;;;;;;;8.77;2.35;;;;;;;;;;4986050;28;20090;-66
2023/08/24 10:11:26;;;;;;;7.60;1.88;;;;;;;;;;4985065;28;20050;-61
2023/08/24 10:14:18;;;;;;;10.05;2.33;;;;;;;;;;4984916;28;20046;-61
2023/08/24 10:17:12;;;;;;;;;;;;;;;;;;4984133;28;20195;-61
2023/08/24 10:20:26;;;;;;;17.40;2.95;;;;;;;;;;4983310;28;19922;-52
2023/08/24 10:23:20;;;;;;;9.65;2.17;;;;;;;;;;4985716;28;20065;-59
2023/08/24 10:26:08;;;;;;;10.57;2.17;;;;;;;;;;4983855;28;20050;-59
2023/08/24 10:29:03;;;;;;;8.52;2.20;;;;;;;;;;4984849;28;20463;-59
2023/08/24 10:31:51;;;;;;;10.85;2.15;;;;;;;;;;4981881;28;20058;-59
2023/08/24 10:34:45;;;;;;;4.55;1.70;;;;;;;;;;4982941;28;20073;-60
2023/08/24 10:37:41;;;;;;;6.47;2.05;;;;;;;;;;4983379;28;20480;-59
2023/08/24 10:40:35;;;;;;;12.60;2.72;;;;;;;;;;4981920;28;20059;-61
2023/08/24 10:43:23;;;;;;;8.70;2.63;;;;;;;;;;4980810;28;20137;-61
2023/08/24 10:46:16;;;;;;;11.82;2.30;;;;;;;;;;4983366;28;20054;-61
2023/08/24 10:49:07;;;;;;;8.48;2.28;;;;;;;;;;4980773;28;20527;-53
2023/08/24 10:52:39;;;;;;;6.70;1.88;;;;;;;;;;4979640;28;20590;-60
2023/08/24 10:55:26;;;;;;;5.93;1.75;;;;;;;;;;4918560;29;20185;-60
2023/08/24 10:58:19;;;;;;;13.00;2.20;;;;;;;;;;4984371;28;20109;-60
2023/08/24 11:01:07;;;;;;;10.85;1.95;;;;;;;;;;4982256;28;20054;-60
2023/08/24 11:04:00;;;;;;;7.72;2.00;;;;;;;;;;4980730;28;20054;-59
2023/08/24 11:06:54;;;;;;;9.30;2.33;;;;;;;;;;4979653;28;21391;-60
2023/08/24 11:09:48;;;;;;;8.07;2.00;;;;;;;;;;4983439;28;20054;-59
2023/08/24 11:13:10;;;;;;;7.72;1.83;;;;;;;;;;4985706;28;20061;-60
2023/08/24 11:16:09;;;;;;;6.22;1.83;;;;;;;;;;4923816;28;20048;-60
2023/08/24 11:19:05;;;;;;;7.40;1.83;;;;;;;;;;4980399;28;20058;-59
2023/08/24 11:21:53;;;;;;;10.93;2.60;;;;;;;;;;4978808;28;20054;-50
2023/08/24 11:24:46;;;;;;;6.82;2.00;;;;;;;;;;4981163;28;20042;-55
2023/08/24 11:27:34;;;;;;;11.63;2.40;;;;;;;;;;4980584;28;20594;-55
2023/08/24 11:30:27;;;;;;;9.05;2.05;;;;;;;;;;4978283;28;20120;-56
2023/08/24 11:33:15;;;;;;;6.70;2.00;;;;;;;;;;4980250;28;20058;-56
2023/08/24 11:36:09;;;;;;;4.25;1.85;;;;;;;;;;4979185;28;20052;-54
2023/08/24 11:38:57;;;;;;;6.75;2.10;;;;;;;;;;4984331;28;21288;-50
2023/08/24 11:41:58;;;;;;;7.22;1.50;;;;;;;;;;4982971;28;20062;-53
2023/08/24 11:44:46;;;;;;;8.52;1.83;;;;;;;;;;4986019;28;20594;-51
2023/08/24 11:47:38;;;;;;;7.50;2.10;;;;;;;;;;4981485;28;20752;-58
2023/08/24 11:50:26;;;;;;;7.22;1.92;;;;;;;;;;4980743;28;20058;-59
2023/08/24 11:53:20;;;;;;;5.45;2.00;;;;;;;;;;4977475;28;20277;-59
2023/08/24 11:56:09;;;;;;;9.70;1.63;;;;;;;;;;4978576;28;20046;-59
2023/08/24 11:59:03;;;;;;;5.50;1.80;;;;;;;;;;4982454;28;20052;-59
2023/08/24 12:01:51;;;;;;;7.70;1.80;;;;;;;;;;4979308;28;20097;-57
2023/08/24 12:04:45;;;;;;;5.78;1.52;;;;;;;;;;4982576;28;20916;-59
2023/08/24 12:07:32;;;;;;;5.13;1.90;;;;;;;;;;4975641;28;20043;-59
2023/08/24 12:10:26;;;;;;;6.38;1.67;;;;;;;;;;4978521;28;20154;-59
2023/08/24 12:13:13;;;;;;;5.93;1.88;;;;;;;;;;4978715;28;20058;-60
2023/08/24 12:16:07;;;;;;;5.82;2.03;;;;;;;;;;4977937;28;20050;-60
2023/08/24 12:19:14;;;;;;;5.22;1.65;;;;;;;;;;4977682;28;20085;-59
2023/08/24 12:22:09;;;;;;;6.97;1.90;;;;;;;;;;4981316;28;20077;-58
2023/08/24 12:25:02;;;;;;;4.03;1.67;;;;;;;;;;4982173;28;20085;-59
2023/08/24 12:28:10;;;;;;;9.00;1.58;;;;;;;;;;4982201;28;20042;-59
2023/08/24 12:31:00;;;;;;;6.72;2.03;;;;;;;;;;4980797;28;20057;-59
2023/08/24 12:34:20;;;;;;;3.47;1.50;;;;;;;;;;4982917;28;20062;-55
2023/08/24 12:37:07;;;;;;;6.80;1.80;;;;;;;;;;4983032;28;20616;-54
2023/08/24 12:40:01;;;;;;;6.30;1.63;;;;;;;;;;4983238;28;20057;-50
2023/08/24 12:42:54;;;;;;;8.25;1.48;;;;;;;;;;4981673;28;20595;-59
2023/08/24 12:45:42;;;;;;;6.05;1.30;;;;;;;;;;4982944;28;20054;-61
2023/08/24 12:48:35;;;;;;;8.32;1.85;;;;;;;;;;4983425;28;20055;-61
2023/08/24 12:51:24;;;;;;;5.10;1.63;;;;;;;;;;4985146;28;20051;-61
2023/08/24 12:54:17;;;;;;;5.85;1.70;;;;;;;;;;4983587;28;20046;-62
2023/08/24 12:57:04;;;;;;;4.68;1.75;;;;;;;;;;4986691;28;20038;-60
2023/08/24 12:59:58;;;;;;;6.65;1.77;;;;;;;;;;4988781;28;20054;-61
2023/08/24 13:02:51;;;;;;;5.55;1.38;;;;;;;;;;4985922;28;20061;-62
2023/08/24 13:05:47;;;;;;;6.97;1.52;;;;;;;;;;4983520;28;20439;-62
2023/08/24 13:08:50;;;;;;;6.63;1.60;;;;;;;;;;4983388;28;20046;-62
2023/08/24 13:11:44;;;;;;;3.30;1.58;;;;;;;;;;4983716;28;20048;-59
2023/08/24 13:14:31;;;;;;;15.82;2.17;;;;;;;;;;4984444;28;20066;-56
2023/08/24 13:17:24;;;;;;;4.43;1.40;;;;;;;;;;4979909;28;20050;-53
2023/08/24 13:20:25;;;;;;;3.53;1.63;;;;;;;;;;5004179;28;20050;-55
2023/08/24 13:23:18;;;;;;;5.53;1.50;;;;;;;;;;5006219;28;20523;-54
2023/08/24 13:26:06;;;;;;;5.50;1.52;;;;;;;;;;5000169;28;20050;-53
2023/08/24 13:29:01;;;;;;;7.30;1.70;;;;;;;;;;5000683;28;20116;-60
2023/08/24 13:31:47;;;;;;;6.97;1.73;;;;;;;;;;4998313;28;20084;-61
2023/08/24 13:34:40;;;;;;;4.85;1.33;;;;;;;;;;5000919;28;20053;-61
2023/08/24 13:37:36;;;;;;;6.50;1.63;;;;;;;;;;5002411;28;20060;-60
2023/08/24 13:40:23;;;;;;;4.20;1.77;;;;;;;;;;5001904;28;20515;-62
2023/08/24 13:43:19;;;;;;;6.15;1.63;;;;;;;;;;5001959;28;20841;-61
2023/08/24 13:46:05;;;;;;;5.68;1.58;;;;;;;;;;5002132;28;20174;-60
2023/08/24 13:48:58;;;;;;;6.75;1.77;;;;;;;;;;5003949;28;20500;-61
2023/08/24 13:52:06;;;;;;;4.88;1.40;;;;;;;;;;4999576;28;20519;-61
2023/08/24 13:55:03;;;;;;;7.25;1.77;;;;;;;;;;5004009;28;20309;-61
2023/08/24 13:57:53;;;;;;;8.48;1.85;;;;;;;;;;5002097;28;20112;-54
2023/08/24 14:00:41;;;;;;;5.43;1.42;;;;;;;;;;5001490;28;20058;-52
2023/08/24 14:03:35;;;;;;;7.43;1.83;;;;;;;;;;5000200;28;20432;-53
2023/08/24 14:06:22;;;;;;;5.78;1.77;;;;;;;;;;5006931;28;20057;-54
2023/08/24 14:09:16;;;;;;;3.20;1.38;;;;;;;;;;5001737;28;20523;-59
2023/08/24 14:12:03;;;;;;;5.40;1.48;;;;;;;;;;5001945;28;20454;-59
2023/08/24 14:14:58;;;;;;;6.13;1.75;;;;;;;;;;5004744;28;20108;-59
2023/08/24 14:17:45;;;;;;;9.20;1.48;;;;;;;;;;4998110;28;20064;-59
2023/08/24 14:20:45;;;;;;;5.75;1.40;;;;;;;;;;5001192;28;20065;-59
2023/08/24 14:23:34;;;;;;;5.22;1.60;;;;;;;;;;5001459;28;20058;-59
2023/08/24 14:26:28;;;;;;;8.60;1.83;;;;;;;;;;5003711;28;20056;-67
2023/08/24 14:29:15;;;;;;;7.50;1.88;;;;;;;;;;5002665;28;20050;-66
2023/08/24 14:32:08;;;;;;;5.57;1.65;;;;;;;;;;5002533;28;20058;-67
2023/08/24 14:34:56;;;;;;;5.70;1.83;;;;;;;;;;5005349;28;20089;-66
2023/08/24 14:37:49;;;;;;;3.60;1.50;;;;;;;;;;5000276;28;20058;-61
2023/08/24 14:40:37;;;;;;;4.45;1.60;;;;;;;;;;5001623;28;20069;-54
2023/08/24 14:43:30;;;;;;;3.97;1.50;;;;;;;;;;5003391;28;20077;-51
2023/08/24 14:46:18;;;;;;;7.72;1.80;;;;;;;;;;4999727;28;20589;-54
2023/08/24 14:49:12;;;;;;;6.90;1.42;;;;;;;;;;4995176;28;20519;-50
2023/08/24 14:52:06;;;;;;;8.75;1.80;;;;;;;;;;4998944;28;20069;-54
2023/08/24 14:54:53;;;;;;;4.20;1.10;;;;;;;;;;5002557;28;20108;-61
2023/08/24 14:57:47;;;;;;;8.52;1.55;;;;;;;;;;5002059;28;20057;-61
2023/08/24 15:00:34;;;;;;;4.57;1.63;;;;;;;;;;5005150;28;20054;-61
2023/08/24 15:03:28;;;;;;;3.35;1.30;;;;;;;;;;5002499;28;20042;-61
2023/08/24 15:06:15;;;;;;;5.00;1.38;;;;;;;;;;5002410;28;20117;-55
2023/08/24 15:09:09;;;;;;;3.83;1.67;;;;;;;;;;5001047;28;20050;-63
2023/08/24 15:11:56;;;;;;;2.30;1.30;;;;;;;;;;5003243;28;20058;-61
2023/08/24 15:15:00;;;;;;;4.22;1.20;;;;;;;;;;5003383;28;20054;-63
2023/08/24 15:17:47;;;;;;;3.17;1.10;;;;;;;;;;5002665;28;20527;-62
2023/08/24 15:20:47;;;;;;;3.53;0.90;;;;;;;;;;4978538;28;20052;-63
2023/08/24 15:23:34;;;;;;;4.50;1.63;;;;;;;;;;4981311;28;20050;-59
2023/08/24 15:26:29;;;;;;;4.50;1.85;;;;;;;;;;4980313;28;20112;-58
2023/08/24 15:29:17;;;;;;;8.35;1.48;;;;;;;;;;4977986;28;20066;-58
2023/08/24 15:32:10;;;;;;;6.10;1.60;;;;;;;;;;4981114;28;20058;-58
2023/08/24 15:35:05;;;;;;;6.45;1.95;;;;;;;;;;4977017;28;20046;-58
2023/08/24 15:37:58;;;;;;;3.15;1.05;;;;;;;;;;4980339;28;20184;-54
2023/08/24 15:40:53;;;;;;;5.00;1.20;;;;;;;;;;4978605;28;20089;-54
2023/08/24 15:43:45;;;;;;;5.28;1.33;;;;;;;;;;4983505;28;20128;-52
2023/08/24 15:46:33;;;;;;;5.65;1.67;;;;;;;;;;4983240;28;20046;-53
2023/08/24 15:49:27;;;;;;;6.25;2.03;;;;;;;;;;4982621;28;20503;-52
2023/08/24 15:52:20;;;;;;;3.78;1.23;;;;;;;;;;4980387;28;20051;-54
2023/08/24 15:55:13;;;;;;;;;;;;;;;;;;4980634;28;20058;-49
2023/08/24 15:58:01;;;;;;;4.90;1.65;;;;;;;;;;4975957;28;20031;-54
2023/08/24 16:00:54;;;;;;;4.35;1.67;;;;;;;;;;4983868;28;20526;-56
2023/08/24 16:03:42;;;;;;;6.63;1.83;;;;;;;;;;4984267;28;20113;-58
2023/08/24 16:06:36;;;;;;;7.07;1.63;;;;;;;;;;4987213;28;20113;-51
2023/08/24 16:09:30;;;;;;;4.82;1.75;;;;;;;;;;4989211;28;20046;-53
2023/08/24 16:12:17;;;;;;;6.20;1.90;;;;;;;;;;4981280;28;20878;-52
2023/08/24 16:15:11;;;;;;;10.90;1.40;;;;;;;;;;4979170;28;20835;-53
2023/08/24 16:17:58;;;;;;;3.70;1.40;;;;;;;;;;4978087;28;20060;-54
2023/08/24 16:20:58;;;;;;;5.95;1.77;;;;;;;;;;4977122;28;20454;-66
2023/08/24 16:23:45;;;;;;;8.00;1.70;;;;;;;;;;4982293;28;20287;-66
2023/08/24 16:26:40;;;;;;;9.80;1.70;;;;;;;;;;4978520;28;21638;-66
2023/08/24 16:29:27;;;;;;;8.15;1.92;;;;;;;;;;4981762;28;20425;-66
2023/08/24 16:32:21;;;;;;;5.88;1.33;;;;;;;;;;4981069;28;20579;-58
2023/08/24 16:35:08;;;;;;;5.95;1.60;;;;;;;;;;4978811;28;20583;-58
2023/08/24 16:38:02;;;;;;;4.35;1.35;;;;;;;;;;4976221;28;20578;-57
2023/08/24 16:40:49;;;;;;;7.05;1.77;;;;;;;;;;4974594;28;20051;-57
2023/08/24 16:43:43;;;;;;;4.75;1.55;;;;;;;;;;4979895;28;20051;-56
2023/08/24 16:46:31;;;;;;;6.40;2.33;;;;;;;;;;4978523;28;20533;-58
2023/08/24 16:49:24;;;;;;;6.85;1.55;;;;;;;;;;4982217;28;20058;-66
2023/08/24 16:52:11;;;;;;;5.43;1.63;;;;;;;;;;4972778;28;20104;-65
2023/08/24 16:55:05;;;;;;;5.13;1.95;;;;;;;;;;4975553;28;20705;-67
2023/08/24 16:57:52;;;;;;;6.57;1.70;;;;;;;;;;4981770;28;20174;-66
2023/08/24 17:00:45;;;;;;;5.07;1.67;;;;;;;;;;4985275;28;20073;-62
2023/08/24 17:03:33;;;;;;;5.07;1.90;;;;;;;;;;4985877;28;20069;-56